sensor_id;sensor_type;location;lat;lon;timestamp;P1;durP1;ratioP1;P2;durP2;ratioP2
5279;SDS011;2663;53.588;10.010;2022-08-03T00:01:50;8.90;;;4.93;;
5279;SDS011;2663;53.588;10.010;2022-08-03T00:04:16;9.53;;;4.63;;
5279;SDS011;2663;53.588;10.010;2022-08-03T00:06:43;10.90;;;5.00;;
5279;SDS011;2663;53.588;10.010;2022-08-03T00:09:10;8.47;;;5.07;;
5279;SDS011;2663;53.588;10.010;2022-08-03T00:11:37;7.20;;;4.60;;
5279;SDS011;2663;53.588;10.010;2022-08-03T00:14:04;7.47;;;4.83;;
5279;SDS011;2663;53.588;10.010;2022-08-03T00:16:31;10.57;;;5.13;;
5279;SDS011;2663;53.588;10.010;2022-08-03T00:18:58;6.37;;;4.77;;
5279;SDS011;2663;53.588;10.010;2022-08-03T00:21:26;9.83;;;5.80;;
5279;SDS011;2663;53.588;10.010;2022-08-03T00:23:54;8.93;;;5.03;;
5279;SDS011;2663;53.588;10.010;2022-08-03T00:26:21;6.47;;;5.30;;
5279;SDS011;2663;53.588;10.010;2022-08-03T00:28:48;8.00;;;5.20;;
5279;SDS011;2663;53.588;10.010;2022-08-03T00:31:15;7.60;;;4.90;;
5279;SDS011;2663;53.588;10.010;2022-08-03T00:34:02;7.33;;;5.10;;
5279;SDS011;2663;53.588;10.010;2022-08-03T00:36:29;6.07;;;4.77;;
5279;SDS011;2663;53.588;10.010;2022-08-03T00:38:56;6.30;;;5.70;;
5279;SDS011;2663;53.588;10.010;2022-08-03T00:41:22;6.83;;;4.53;;
5279;SDS011;2663;53.588;10.010;2022-08-03T00:43:49;10.47;;;5.20;;
5279;SDS011;2663;53.588;10.010;2022-08-03T00:46:16;7.63;;;4.77;;
5279;SDS011;2663;53.588;10.010;2022-08-03T00:48:50;9.47;;;5.87;;
5279;SDS011;2663;53.588;10.010;2022-08-03T00:51:17;6.07;;;4.67;;
5279;SDS011;2663;53.588;10.010;2022-08-03T00:53:46;8.33;;;4.73;;
5279;SDS011;2663;53.588;10.010;2022-08-03T00:56:13;13.53;;;4.83;;
5279;SDS011;2663;53.588;10.010;2022-08-03T00:58:42;4.83;;;4.37;;
5279;SDS011;2663;53.588;10.010;2022-08-03T01:01:09;5.73;;;5.07;;
5279;SDS011;2663;53.588;10.010;2022-08-03T01:03:37;8.60;;;4.10;;
5279;SDS011;2663;53.588;10.010;2022-08-03T01:06:18;7.60;;;5.17;;
5279;SDS011;2663;53.588;10.010;2022-08-03T01:08:56;5.37;;;4.33;;
5279;SDS011;2663;53.588;10.010;2022-08-03T01:11:40;7.10;;;4.47;;
5279;SDS011;2663;53.588;10.010;2022-08-03T01:14:31;6.27;;;5.00;;
5279;SDS011;2663;53.588;10.010;2022-08-03T01:17:04;5.93;;;4.23;;
5279;SDS011;2663;53.588;10.010;2022-08-03T01:19:45;6.87;;;4.47;;
5279;SDS011;2663;53.588;10.010;2022-08-03T01:22:27;7.30;;;5.00;;
5279;SDS011;2663;53.588;10.010;2022-08-03T01:27:57;11.63;;;4.53;;
5279;SDS011;2663;53.588;10.010;2022-08-03T01:30:48;5.67;;;5.00;;
5279;SDS011;2663;53.588;10.010;2022-08-03T01:33:19;5.67;;;4.90;;
5279;SDS011;2663;53.588;10.010;2022-08-03T01:35:53;7.90;;;4.60;;
5279;SDS011;2663;53.588;10.010;2022-08-03T01:38:31;7.20;;;4.60;;
5279;SDS011;2663;53.588;10.010;2022-08-03T01:41:04;6.33;;;4.50;;
5279;SDS011;2663;53.588;10.010;2022-08-03T01:43:35;8.20;;;5.00;;
5279;SDS011;2663;53.588;10.010;2022-08-03T01:46:25;6.93;;;4.70;;
5279;SDS011;2663;53.588;10.010;2022-08-03T01:48:53;5.67;;;4.90;;
5279;SDS011;2663;53.588;10.010;2022-08-03T01:51:21;4.20;;;3.80;;
5279;SDS011;2663;53.588;10.010;2022-08-03T01:53:48;5.83;;;3.90;;
5279;SDS011;2663;53.588;10.010;2022-08-03T01:56:17;5.00;;;4.30;;
5279;SDS011;2663;53.588;10.010;2022-08-03T01:58:47;7.63;;;4.60;;
5279;SDS011;2663;53.588;10.010;2022-08-03T02:01:16;8.57;;;4.60;;
5279;SDS011;2663;53.588;10.010;2022-08-03T02:03:44;7.83;;;4.80;;
5279;SDS011;2663;53.588;10.010;2022-08-03T02:06:26;8.53;;;4.67;;
5279;SDS011;2663;53.588;10.010;2022-08-03T02:09:14;5.67;;;4.30;;
5279;SDS011;2663;53.588;10.010;2022-08-03T02:11:43;4.53;;;4.13;;
5279;SDS011;2663;53.588;10.010;2022-08-03T02:14:11;6.57;;;4.80;;
5279;SDS011;2663;53.588;10.010;2022-08-03T02:16:40;4.27;;;3.80;;
5279;SDS011;2663;53.588;10.010;2022-08-03T02:19:09;8.77;;;4.73;;
5279;SDS011;2663;53.588;10.010;2022-08-03T02:21:36;9.00;;;4.43;;
5279;SDS011;2663;53.588;10.010;2022-08-03T02:24:24;9.40;;;5.30;;
5279;SDS011;2663;53.588;10.010;2022-08-03T02:26:52;8.60;;;4.67;;
5279;SDS011;2663;53.588;10.010;2022-08-03T02:29:22;15.67;;;4.90;;
5279;SDS011;2663;53.588;10.010;2022-08-03T02:32:06;12.33;;;4.87;;
5279;SDS011;2663;53.588;10.010;2022-08-03T02:34:36;4.47;;;4.03;;
5279;SDS011;2663;53.588;10.010;2022-08-03T02:37:05;8.53;;;4.93;;
5279;SDS011;2663;53.588;10.010;2022-08-03T02:39:33;6.53;;;5.13;;
5279;SDS011;2663;53.588;10.010;2022-08-03T02:42:01;7.37;;;4.63;;
5279;SDS011;2663;53.588;10.010;2022-08-03T02:44:31;6.10;;;4.97;;
5279;SDS011;2663;53.588;10.010;2022-08-03T02:47:01;5.17;;;4.67;;
5279;SDS011;2663;53.588;10.010;2022-08-03T02:49:31;6.00;;;4.23;;
5279;SDS011;2663;53.588;10.010;2022-08-03T02:52:16;8.37;;;4.40;;
5279;SDS011;2663;53.588;10.010;2022-08-03T02:54:44;10.50;;;5.50;;
5279;SDS011;2663;53.588;10.010;2022-08-03T02:57:12;5.27;;;4.70;;
5279;SDS011;2663;53.588;10.010;2022-08-03T02:59:40;10.37;;;5.30;;
5279;SDS011;2663;53.588;10.010;2022-08-03T03:02:08;7.17;;;5.20;;
5279;SDS011;2663;53.588;10.010;2022-08-03T03:04:36;6.30;;;4.63;;
5279;SDS011;2663;53.588;10.010;2022-08-03T03:07:23;12.50;;;4.60;;
5279;SDS011;2663;53.588;10.010;2022-08-03T03:09:53;6.13;;;5.30;;
5279;SDS011;2663;53.588;10.010;2022-08-03T03:12:21;8.87;;;5.40;;
5279;SDS011;2663;53.588;10.010;2022-08-03T03:14:48;10.50;;;5.17;;
5279;SDS011;2663;53.588;10.010;2022-08-03T03:17:15;6.73;;;4.83;;
5279;SDS011;2663;53.588;10.010;2022-08-03T03:19:43;7.10;;;5.33;;
5279;SDS011;2663;53.588;10.010;2022-08-03T03:22:10;8.53;;;5.20;;
5279;SDS011;2663;53.588;10.010;2022-08-03T03:24:38;6.67;;;5.20;;
5279;SDS011;2663;53.588;10.010;2022-08-03T03:27:06;6.10;;;5.50;;
5279;SDS011;2663;53.588;10.010;2022-08-03T03:29:33;12.40;;;5.40;;
5279;SDS011;2663;53.588;10.010;2022-08-03T03:32:04;6.13;;;4.90;;
5279;SDS011;2663;53.588;10.010;2022-08-03T03:34:37;9.03;;;6.10;;
5279;SDS011;2663;53.588;10.010;2022-08-03T03:37:04;10.00;;;5.53;;
5279;SDS011;2663;53.588;10.010;2022-08-03T03:39:31;6.93;;;5.80;;
5279;SDS011;2663;53.588;10.010;2022-08-03T03:41:58;10.83;;;5.80;;
5279;SDS011;2663;53.588;10.010;2022-08-03T03:44:28;6.70;;;5.00;;
5279;SDS011;2663;53.588;10.010;2022-08-03T03:46:58;6.20;;;5.53;;
5279;SDS011;2663;53.588;10.010;2022-08-03T03:49:25;6.53;;;5.27;;
5279;SDS011;2663;53.588;10.010;2022-08-03T03:51:52;7.93;;;5.93;;
5279;SDS011;2663;53.588;10.010;2022-08-03T03:54:20;5.90;;;5.30;;
5279;SDS011;2663;53.588;10.010;2022-08-03T03:56:50;7.60;;;5.73;;
5279;SDS011;2663;53.588;10.010;2022-08-03T03:59:17;6.60;;;5.23;;
5279;SDS011;2663;53.588;10.010;2022-08-03T04:01:44;5.67;;;5.17;;
5279;SDS011;2663;53.588;10.010;2022-08-03T04:04:11;6.80;;;5.77;;
5279;SDS011;2663;53.588;10.010;2022-08-03T04:06:56;10.97;;;7.00;;
5279;SDS011;2663;53.588;10.010;2022-08-03T04:09:42;7.07;;;5.50;;
5279;SDS011;2663;53.588;10.010;2022-08-03T04:12:40;7.50;;;5.70;;
5279;SDS011;2663;53.588;10.010;2022-08-03T04:15:16;8.33;;;5.70;;
5279;SDS011;2663;53.588;10.010;2022-08-03T04:17:46;11.60;;;5.90;;
5279;SDS011;2663;53.588;10.010;2022-08-03T04:20:15;11.83;;;5.47;;
5279;SDS011;2663;53.588;10.010;2022-08-03T04:22:47;7.83;;;5.90;;
5279;SDS011;2663;53.588;10.010;2022-08-03T04:25:16;6.57;;;5.63;;
5279;SDS011;2663;53.588;10.010;2022-08-03T04:27:45;9.00;;;5.80;;
5279;SDS011;2663;53.588;10.010;2022-08-03T04:30:35;8.57;;;6.13;;
5279;SDS011;2663;53.588;10.010;2022-08-03T04:33:04;8.17;;;5.20;;
5279;SDS011;2663;53.588;10.010;2022-08-03T04:35:33;5.40;;;4.90;;
5279;SDS011;2663;53.588;10.010;2022-08-03T04:38:21;7.23;;;5.50;;
5279;SDS011;2663;53.588;10.010;2022-08-03T04:40:50;10.30;;;5.47;;
5279;SDS011;2663;53.588;10.010;2022-08-03T04:43:18;8.03;;;5.67;;
5279;SDS011;2663;53.588;10.010;2022-08-03T04:45:49;11.60;;;6.33;;
5279;SDS011;2663;53.588;10.010;2022-08-03T04:48:18;9.23;;;5.93;;
5279;SDS011;2663;53.588;10.010;2022-08-03T04:50:46;6.77;;;6.07;;
5279;SDS011;2663;53.588;10.010;2022-08-03T04:53:13;10.43;;;5.70;;
5279;SDS011;2663;53.588;10.010;2022-08-03T04:55:41;6.20;;;5.60;;
5279;SDS011;2663;53.588;10.010;2022-08-03T04:58:07;10.43;;;5.70;;
5279;SDS011;2663;53.588;10.010;2022-08-03T05:00:34;7.13;;;5.80;;
5279;SDS011;2663;53.588;10.010;2022-08-03T05:03:01;7.70;;;6.10;;
5279;SDS011;2663;53.588;10.010;2022-08-03T05:05:28;10.60;;;7.00;;
5279;SDS011;2663;53.588;10.010;2022-08-03T05:08:14;12.83;;;6.20;;
5279;SDS011;2663;53.588;10.010;2022-08-03T05:10:45;9.73;;;6.57;;
5279;SDS011;2663;53.588;10.010;2022-08-03T05:13:12;11.63;;;6.07;;
5279;SDS011;2663;53.588;10.010;2022-08-03T05:15:39;12.10;;;6.17;;
5279;SDS011;2663;53.588;10.010;2022-08-03T05:18:08;10.27;;;5.90;;
5279;SDS011;2663;53.588;10.010;2022-08-03T05:20:39;12.80;;;8.90;;
5279;SDS011;2663;53.588;10.010;2022-08-03T05:23:06;15.47;;;9.40;;
5279;SDS011;2663;53.588;10.010;2022-08-03T05:25:33;7.80;;;6.13;;
5279;SDS011;2663;53.588;10.010;2022-08-03T05:28:00;16.00;;;8.70;;
5279;SDS011;2663;53.588;10.010;2022-08-03T05:30:26;9.40;;;6.37;;
5279;SDS011;2663;53.588;10.010;2022-08-03T05:32:59;19.20;;;10.63;;
5279;SDS011;2663;53.588;10.010;2022-08-03T05:35:27;10.13;;;6.80;;
5279;SDS011;2663;53.588;10.010;2022-08-03T05:38:14;16.40;;;9.17;;
5279;SDS011;2663;53.588;10.010;2022-08-03T05:40:54;13.70;;;7.20;;
5279;SDS011;2663;53.588;10.010;2022-08-03T05:43:41;12.40;;;8.10;;
5279;SDS011;2663;53.588;10.010;2022-08-03T05:46:08;21.63;;;10.10;;
5279;SDS011;2663;53.588;10.010;2022-08-03T05:48:37;14.70;;;7.13;;
5279;SDS011;2663;53.588;10.010;2022-08-03T05:51:04;9.97;;;6.97;;
5279;SDS011;2663;53.588;10.010;2022-08-03T05:53:32;14.40;;;8.37;;
5279;SDS011;2663;53.588;10.010;2022-08-03T05:55:59;9.00;;;6.77;;
5279;SDS011;2663;53.588;10.010;2022-08-03T05:58:38;12.97;;;7.30;;
5279;SDS011;2663;53.588;10.010;2022-08-03T06:01:05;18.03;;;7.13;;
5279;SDS011;2663;53.588;10.010;2022-08-03T06:03:31;19.10;;;6.83;;
5279;SDS011;2663;53.588;10.010;2022-08-03T06:05:58;34.50;;;8.70;;
5279;SDS011;2663;53.588;10.010;2022-08-03T06:08:25;14.90;;;7.43;;
5279;SDS011;2663;53.588;10.010;2022-08-03T06:10:52;23.23;;;12.90;;
5279;SDS011;2663;53.588;10.010;2022-08-03T06:13:19;10.90;;;6.00;;
5279;SDS011;2663;53.588;10.010;2022-08-03T06:15:45;12.83;;;5.63;;
5279;SDS011;2663;53.588;10.010;2022-08-03T06:18:12;17.77;;;6.30;;
5279;SDS011;2663;53.588;10.010;2022-08-03T06:20:39;13.27;;;6.90;;
5279;SDS011;2663;53.588;10.010;2022-08-03T06:23:06;12.83;;;5.20;;
5279;SDS011;2663;53.588;10.010;2022-08-03T06:25:41;22.67;;;6.13;;
5279;SDS011;2663;53.588;10.010;2022-08-03T06:28:08;4.97;;;4.57;;
5279;SDS011;2663;53.588;10.010;2022-08-03T06:30:54;16.07;;;5.17;;
5279;SDS011;2663;53.588;10.010;2022-08-03T06:33:22;11.03;;;4.97;;
5279;SDS011;2663;53.588;10.010;2022-08-03T06:36:11;12.50;;;5.90;;
5279;SDS011;2663;53.588;10.010;2022-08-03T06:38:38;21.20;;;5.37;;
5279;SDS011;2663;53.588;10.010;2022-08-03T06:41:04;13.73;;;5.70;;
5279;SDS011;2663;53.588;10.010;2022-08-03T06:43:31;15.73;;;5.47;;
5279;SDS011;2663;53.588;10.010;2022-08-03T06:46:03;7.67;;;4.43;;
5279;SDS011;2663;53.588;10.010;2022-08-03T06:48:33;6.53;;;4.73;;
5279;SDS011;2663;53.588;10.010;2022-08-03T06:50:59;7.77;;;4.57;;
5279;SDS011;2663;53.588;10.010;2022-08-03T06:53:26;8.43;;;5.17;;
5279;SDS011;2663;53.588;10.010;2022-08-03T06:55:52;22.57;;;6.67;;
5279;SDS011;2663;53.588;10.010;2022-08-03T06:58:20;6.83;;;4.83;;
5279;SDS011;2663;53.588;10.010;2022-08-03T07:00:47;6.17;;;4.60;;
5279;SDS011;2663;53.588;10.010;2022-08-03T07:03:14;11.63;;;4.53;;
5279;SDS011;2663;53.588;10.010;2022-08-03T07:05:41;7.73;;;4.30;;
5279;SDS011;2663;53.588;10.010;2022-08-03T07:08:08;6.90;;;4.90;;
5279;SDS011;2663;53.588;10.010;2022-08-03T07:10:35;8.00;;;4.17;;
5279;SDS011;2663;53.588;10.010;2022-08-03T07:13:02;6.40;;;4.20;;
5279;SDS011;2663;53.588;10.010;2022-08-03T07:15:30;6.07;;;4.30;;
5279;SDS011;2663;53.588;10.010;2022-08-03T07:18:17;6.10;;;3.80;;
5279;SDS011;2663;53.588;10.010;2022-08-03T07:20:54;16.50;;;8.67;;
5279;SDS011;2663;53.588;10.010;2022-08-03T07:23:21;18.07;;;4.83;;
5279;SDS011;2663;53.588;10.010;2022-08-03T07:25:48;6.20;;;3.60;;
5279;SDS011;2663;53.588;10.010;2022-08-03T07:28:16;10.67;;;4.20;;
5279;SDS011;2663;53.588;10.010;2022-08-03T07:30:43;4.87;;;4.37;;
5279;SDS011;2663;53.588;10.010;2022-08-03T07:33:09;5.03;;;3.80;;
5279;SDS011;2663;53.588;10.010;2022-08-03T07:35:36;10.60;;;4.00;;
5279;SDS011;2663;53.588;10.010;2022-08-03T07:38:03;4.00;;;3.37;;
5279;SDS011;2663;53.588;10.010;2022-08-03T07:40:30;25.70;;;14.07;;
5279;SDS011;2663;53.588;10.010;2022-08-03T07:42:57;13.70;;;6.93;;
5279;SDS011;2663;53.588;10.010;2022-08-03T07:45:24;10.53;;;6.53;;
5279;SDS011;2663;53.588;10.010;2022-08-03T07:47:52;6.87;;;3.63;;
5279;SDS011;2663;53.588;10.010;2022-08-03T07:50:19;4.30;;;2.97;;
5279;SDS011;2663;53.588;10.010;2022-08-03T07:52:47;11.10;;;2.97;;
5279;SDS011;2663;53.588;10.010;2022-08-03T07:55:15;4.13;;;2.53;;
5279;SDS011;2663;53.588;10.010;2022-08-03T07:57:43;5.27;;;2.40;;
5279;SDS011;2663;53.588;10.010;2022-08-03T08:00:17;6.70;;;2.73;;
5279;SDS011;2663;53.588;10.010;2022-08-03T08:02:44;4.23;;;1.80;;
5279;SDS011;2663;53.588;10.010;2022-08-03T08:05:11;10.90;;;2.10;;
5279;SDS011;2663;53.588;10.010;2022-08-03T08:07:38;2.50;;;1.90;;
5279;SDS011;2663;53.588;10.010;2022-08-03T08:10:06;2.20;;;1.87;;
5279;SDS011;2663;53.588;10.010;2022-08-03T08:12:35;2.87;;;2.43;;
5279;SDS011;2663;53.588;10.010;2022-08-03T08:15:03;6.33;;;2.03;;
5279;SDS011;2663;53.588;10.010;2022-08-03T08:17:30;4.73;;;1.93;;
5279;SDS011;2663;53.588;10.010;2022-08-03T08:20:11;1.83;;;1.70;;
5279;SDS011;2663;53.588;10.010;2022-08-03T08:22:47;2.60;;;1.80;;
5279;SDS011;2663;53.588;10.010;2022-08-03T08:25:16;5.20;;;2.07;;
5279;SDS011;2663;53.588;10.010;2022-08-03T08:27:45;6.33;;;2.20;;
5279;SDS011;2663;53.588;10.010;2022-08-03T08:30:33;5.07;;;2.60;;
5279;SDS011;2663;53.588;10.010;2022-08-03T08:33:00;3.10;;;1.90;;
5279;SDS011;2663;53.588;10.010;2022-08-03T08:35:27;10.37;;;2.17;;
5279;SDS011;2663;53.588;10.010;2022-08-03T08:37:54;4.87;;;2.50;;
5279;SDS011;2663;53.588;10.010;2022-08-03T08:40:21;4.23;;;1.93;;
5279;SDS011;2663;53.588;10.010;2022-08-03T08:42:48;2.90;;;1.70;;
5279;SDS011;2663;53.588;10.010;2022-08-03T08:45:24;8.47;;;2.23;;
5279;SDS011;2663;53.588;10.010;2022-08-03T08:47:51;8.07;;;2.27;;
5279;SDS011;2663;53.588;10.010;2022-08-03T08:50:26;6.67;;;2.60;;
5279;SDS011;2663;53.588;10.010;2022-08-03T08:52:53;4.93;;;2.10;;
5279;SDS011;2663;53.588;10.010;2022-08-03T08:55:22;3.50;;;2.23;;
5279;SDS011;2663;53.588;10.010;2022-08-03T08:57:49;5.77;;;2.50;;
5279;SDS011;2663;53.588;10.010;2022-08-03T09:00:24;4.13;;;1.97;;
5279;SDS011;2663;53.588;10.010;2022-08-03T09:02:51;4.43;;;2.40;;
5279;SDS011;2663;53.588;10.010;2022-08-03T09:05:18;5.60;;;1.90;;
5279;SDS011;2663;53.588;10.010;2022-08-03T09:08:05;2.33;;;1.90;;
5279;SDS011;2663;53.588;10.010;2022-08-03T09:10:32;6.60;;;2.57;;
5279;SDS011;2663;53.588;10.010;2022-08-03T09:12:59;3.30;;;2.10;;
5279;SDS011;2663;53.588;10.010;2022-08-03T09:15:28;4.80;;;2.60;;
5279;SDS011;2663;53.588;10.010;2022-08-03T09:17:59;5.73;;;2.57;;
5279;SDS011;2663;53.588;10.010;2022-08-03T09:20:29;5.70;;;1.80;;
5279;SDS011;2663;53.588;10.010;2022-08-03T09:25:49;8.57;;;1.80;;
5279;SDS011;2663;53.588;10.010;2022-08-03T09:28:25;5.90;;;2.20;;
5279;SDS011;2663;53.588;10.010;2022-08-03T09:31:21;6.13;;;2.70;;
5279;SDS011;2663;53.588;10.010;2022-08-03T09:34:09;3.90;;;1.97;;
5279;SDS011;2663;53.588;10.010;2022-08-03T09:39:12;5.60;;;2.10;;
5279;SDS011;2663;53.588;10.010;2022-08-03T09:42:08;3.43;;;2.80;;
5279;SDS011;2663;53.588;10.010;2022-08-03T09:44:50;4.20;;;1.80;;
5279;SDS011;2663;53.588;10.010;2022-08-03T09:47:27;18.23;;;3.03;;
5279;SDS011;2663;53.588;10.010;2022-08-03T09:49:58;3.03;;;1.87;;
5279;SDS011;2663;53.588;10.010;2022-08-03T09:52:31;3.20;;;1.80;;
5279;SDS011;2663;53.588;10.010;2022-08-03T09:55:15;4.20;;;1.97;;
5279;SDS011;2663;53.588;10.010;2022-08-03T09:58:03;2.80;;;2.10;;
5279;SDS011;2663;53.588;10.010;2022-08-03T10:00:31;4.63;;;1.60;;
5279;SDS011;2663;53.588;10.010;2022-08-03T10:03:17;4.60;;;1.97;;
5279;SDS011;2663;53.588;10.010;2022-08-03T10:05:43;4.10;;;1.57;;
5279;SDS011;2663;53.588;10.010;2022-08-03T10:08:14;5.23;;;2.03;;
5279;SDS011;2663;53.588;10.010;2022-08-03T10:10:43;7.37;;;2.00;;
5279;SDS011;2663;53.588;10.010;2022-08-03T10:13:17;3.80;;;2.27;;
5279;SDS011;2663;53.588;10.010;2022-08-03T10:15:45;3.17;;;1.93;;
5279;SDS011;2663;53.588;10.010;2022-08-03T10:18:32;7.83;;;2.03;;
5279;SDS011;2663;53.588;10.010;2022-08-03T10:21:06;1.83;;;1.63;;
5279;SDS011;2663;53.588;10.010;2022-08-03T10:23:38;1.70;;;1.23;;
5279;SDS011;2663;53.588;10.010;2022-08-03T10:26:06;4.90;;;1.90;;
5279;SDS011;2663;53.588;10.010;2022-08-03T10:28:34;1.70;;;1.57;;
5279;SDS011;2663;53.588;10.010;2022-08-03T10:31:10;9.03;;;2.00;;
5279;SDS011;2663;53.588;10.010;2022-08-03T10:33:42;2.83;;;1.77;;
5279;SDS011;2663;53.588;10.010;2022-08-03T10:36:17;5.70;;;1.67;;
5279;SDS011;2663;53.588;10.010;2022-08-03T10:38:48;2.00;;;1.80;;
5279;SDS011;2663;53.588;10.010;2022-08-03T10:41:20;9.53;;;2.00;;
5279;SDS011;2663;53.588;10.010;2022-08-03T10:44:24;4.23;;;1.60;;
5279;SDS011;2663;53.588;10.010;2022-08-03T10:46:45;2.37;;;1.40;;
5279;SDS011;2663;53.588;10.010;2022-08-03T10:49:14;5.53;;;1.80;;
5279;SDS011;2663;53.588;10.010;2022-08-03T10:52:00;5.47;;;1.93;;
5279;SDS011;2663;53.588;10.010;2022-08-03T10:54:49;4.67;;;1.90;;
5279;SDS011;2663;53.588;10.010;2022-08-03T10:57:49;3.90;;;1.93;;
5279;SDS011;2663;53.588;10.010;2022-08-03T11:00:24;4.37;;;1.67;;
5279;SDS011;2663;53.588;10.010;2022-08-03T11:03:00;4.53;;;2.17;;
5279;SDS011;2663;53.588;10.010;2022-08-03T11:05:39;3.27;;;1.70;;
5279;SDS011;2663;53.588;10.010;2022-08-03T11:08:17;4.03;;;1.40;;
5279;SDS011;2663;53.588;10.010;2022-08-03T11:10:49;4.97;;;2.07;;
5279;SDS011;2663;53.588;10.010;2022-08-03T11:13:17;6.33;;;2.20;;
5279;SDS011;2663;53.588;10.010;2022-08-03T11:15:47;7.77;;;1.70;;
5279;SDS011;2663;53.588;10.010;2022-08-03T11:18:15;5.57;;;1.43;;
5279;SDS011;2663;53.588;10.010;2022-08-03T11:20:47;4.23;;;1.80;;
5279;SDS011;2663;53.588;10.010;2022-08-03T11:23:14;6.90;;;1.70;;
5279;SDS011;2663;53.588;10.010;2022-08-03T11:28:34;4.33;;;1.47;;
5279;SDS011;2663;53.588;10.010;2022-08-03T11:31:36;12.77;;;2.27;;
5279;SDS011;2663;53.588;10.010;2022-08-03T11:34:09;6.90;;;1.53;;
5279;SDS011;2663;53.588;10.010;2022-08-03T11:39:42;5.37;;;1.67;;
5279;SDS011;2663;53.588;10.010;2022-08-03T11:42:36;6.40;;;2.30;;
5279;SDS011;2663;53.588;10.010;2022-08-03T11:45:00;4.70;;;1.50;;
5279;SDS011;2663;53.588;10.010;2022-08-03T11:47:27;5.93;;;2.00;;
5279;SDS011;2663;53.588;10.010;2022-08-03T11:49:56;13.83;;;1.67;;
5279;SDS011;2663;53.588;10.010;2022-08-03T11:52:25;5.30;;;1.77;;
5279;SDS011;2663;53.588;10.010;2022-08-03T11:54:58;4.93;;;1.70;;
5279;SDS011;2663;53.588;10.010;2022-08-03T11:57:32;7.30;;;2.00;;
5279;SDS011;2663;53.588;10.010;2022-08-03T12:00:24;7.13;;;1.30;;
5279;SDS011;2663;53.588;10.010;2022-08-03T12:05:36;1.60;;;1.43;;
5279;SDS011;2663;53.588;10.010;2022-08-03T12:08:05;5.90;;;1.80;;
5279;SDS011;2663;53.588;10.010;2022-08-03T12:10:33;5.20;;;1.90;;
5279;SDS011;2663;53.588;10.010;2022-08-03T12:13:01;2.60;;;1.27;;
5279;SDS011;2663;53.588;10.010;2022-08-03T12:15:55;5.53;;;1.70;;
5279;SDS011;2663;53.588;10.010;2022-08-03T12:18:24;16.57;;;1.43;;
5279;SDS011;2663;53.588;10.010;2022-08-03T12:20:51;4.40;;;1.63;;
5279;SDS011;2663;53.588;10.010;2022-08-03T12:23:28;5.03;;;1.53;;
5279;SDS011;2663;53.588;10.010;2022-08-03T12:25:59;8.30;;;2.17;;
5279;SDS011;2663;53.588;10.010;2022-08-03T12:28:27;3.50;;;1.77;;
5279;SDS011;2663;53.588;10.010;2022-08-03T12:31:04;4.33;;;1.83;;
5279;SDS011;2663;53.588;10.010;2022-08-03T12:33:53;8.13;;;1.90;;
5279;SDS011;2663;53.588;10.010;2022-08-03T12:36:20;12.23;;;2.53;;
5279;SDS011;2663;53.588;10.010;2022-08-03T12:38:53;6.53;;;2.23;;
5279;SDS011;2663;53.588;10.010;2022-08-03T12:41:29;6.33;;;1.70;;
5279;SDS011;2663;53.588;10.010;2022-08-03T12:43:59;8.47;;;1.73;;
5279;SDS011;2663;53.588;10.010;2022-08-03T12:46:29;3.60;;;1.93;;
5279;SDS011;2663;53.588;10.010;2022-08-03T12:49:09;8.83;;;1.20;;
5279;SDS011;2663;53.588;10.010;2022-08-03T12:54:14;4.53;;;1.40;;
5279;SDS011;2663;53.588;10.010;2022-08-03T12:56:57;4.10;;;1.47;;
5279;SDS011;2663;53.588;10.010;2022-08-03T12:59:33;1.73;;;1.47;;
5279;SDS011;2663;53.588;10.010;2022-08-03T13:02:19;7.20;;;1.90;;
5279;SDS011;2663;53.588;10.010;2022-08-03T13:04:50;15.47;;;1.80;;
5279;SDS011;2663;53.588;10.010;2022-08-03T13:07:18;5.20;;;1.93;;
5279;SDS011;2663;53.588;10.010;2022-08-03T13:09:54;7.10;;;1.87;;
5279;SDS011;2663;53.588;10.010;2022-08-03T13:12:22;4.33;;;1.80;;
5279;SDS011;2663;53.588;10.010;2022-08-03T13:14:51;4.20;;;1.33;;
5279;SDS011;2663;53.588;10.010;2022-08-03T13:17:20;7.63;;;1.37;;
5279;SDS011;2663;53.588;10.010;2022-08-03T13:19:47;6.73;;;1.40;;
5279;SDS011;2663;53.588;10.010;2022-08-03T13:22:16;4.73;;;1.67;;
5279;SDS011;2663;53.588;10.010;2022-08-03T13:24:47;3.90;;;1.80;;
5279;SDS011;2663;53.588;10.010;2022-08-03T13:27:15;7.43;;;1.47;;
5279;SDS011;2663;53.588;10.010;2022-08-03T13:30:03;2.10;;;1.50;;
5279;SDS011;2663;53.588;10.010;2022-08-03T13:32:30;5.83;;;1.90;;
5279;SDS011;2663;53.588;10.010;2022-08-03T13:34:57;3.67;;;1.73;;
5279;SDS011;2663;53.588;10.010;2022-08-03T13:37:24;8.60;;;1.93;;
5279;SDS011;2663;53.588;10.010;2022-08-03T13:39:52;6.00;;;1.60;;
5279;SDS011;2663;53.588;10.010;2022-08-03T13:42:26;3.13;;;1.57;;
5279;SDS011;2663;53.588;10.010;2022-08-03T13:44:54;4.80;;;1.87;;
5279;SDS011;2663;53.588;10.010;2022-08-03T13:47:21;11.97;;;1.90;;
5279;SDS011;2663;53.588;10.010;2022-08-03T13:49:48;11.83;;;2.03;;
5279;SDS011;2663;53.588;10.010;2022-08-03T13:52:27;3.00;;;1.70;;
5279;SDS011;2663;53.588;10.010;2022-08-03T13:54:54;6.00;;;1.87;;
5279;SDS011;2663;53.588;10.010;2022-08-03T13:57:21;8.73;;;1.83;;
5279;SDS011;2663;53.588;10.010;2022-08-03T14:00:08;7.60;;;1.57;;
5279;SDS011;2663;53.588;10.010;2022-08-03T14:02:35;9.33;;;1.70;;
5279;SDS011;2663;53.588;10.010;2022-08-03T14:05:03;3.63;;;1.60;;
5279;SDS011;2663;53.588;10.010;2022-08-03T14:07:29;8.13;;;1.70;;
5279;SDS011;2663;53.588;10.010;2022-08-03T14:09:56;3.77;;;1.63;;
5279;SDS011;2663;53.588;10.010;2022-08-03T14:12:23;4.47;;;1.63;;
5279;SDS011;2663;53.588;10.010;2022-08-03T14:14:49;5.97;;;2.23;;
5279;SDS011;2663;53.588;10.010;2022-08-03T14:17:16;8.90;;;1.70;;
5279;SDS011;2663;53.588;10.010;2022-08-03T14:19:43;3.27;;;1.47;;
5279;SDS011;2663;53.588;10.010;2022-08-03T14:22:19;12.47;;;1.77;;
5279;SDS011;2663;53.588;10.010;2022-08-03T14:24:46;2.43;;;1.40;;
5279;SDS011;2663;53.588;10.010;2022-08-03T14:27:14;7.90;;;1.77;;
5279;SDS011;2663;53.588;10.010;2022-08-03T14:29:41;7.50;;;1.60;;
5279;SDS011;2663;53.588;10.010;2022-08-03T14:32:08;5.73;;;1.70;;
5279;SDS011;2663;53.588;10.010;2022-08-03T14:34:38;4.77;;;1.40;;
5279;SDS011;2663;53.588;10.010;2022-08-03T14:37:05;4.90;;;1.83;;
5279;SDS011;2663;53.588;10.010;2022-08-03T14:39:32;2.60;;;1.53;;
5279;SDS011;2663;53.588;10.010;2022-08-03T14:42:19;6.33;;;2.07;;
5279;SDS011;2663;53.588;10.010;2022-08-03T14:44:46;5.40;;;1.93;;
5279;SDS011;2663;53.588;10.010;2022-08-03T14:47:12;4.17;;;1.77;;
5279;SDS011;2663;53.588;10.010;2022-08-03T14:49:40;5.07;;;1.60;;
5279;SDS011;2663;53.588;10.010;2022-08-03T14:52:27;2.90;;;1.47;;
5279;SDS011;2663;53.588;10.010;2022-08-03T14:54:53;3.40;;;1.50;;
5279;SDS011;2663;53.588;10.010;2022-08-03T14:57:20;4.77;;;1.60;;
5279;SDS011;2663;53.588;10.010;2022-08-03T14:59:47;4.10;;;1.50;;
5279;SDS011;2663;53.588;10.010;2022-08-03T15:02:22;3.40;;;1.43;;
5279;SDS011;2663;53.588;10.010;2022-08-03T15:04:50;5.87;;;2.00;;
5279;SDS011;2663;53.588;10.010;2022-08-03T15:07:17;16.43;;;2.07;;
5279;SDS011;2663;53.588;10.010;2022-08-03T15:09:45;4.10;;;1.73;;
5279;SDS011;2663;53.588;10.010;2022-08-03T15:12:12;3.27;;;1.53;;
5279;SDS011;2663;53.588;10.010;2022-08-03T15:14:39;4.13;;;1.83;;
5279;SDS011;2663;53.588;10.010;2022-08-03T15:17:06;2.43;;;1.47;;
5279;SDS011;2663;53.588;10.010;2022-08-03T15:19:33;3.50;;;1.80;;
5279;SDS011;2663;53.588;10.010;2022-08-03T15:22:20;5.93;;;1.60;;
5279;SDS011;2663;53.588;10.010;2022-08-03T15:24:59;4.00;;;1.70;;
5279;SDS011;2663;53.588;10.010;2022-08-03T15:27:27;5.60;;;1.80;;
5279;SDS011;2663;53.588;10.010;2022-08-03T15:29:54;4.80;;;2.00;;
5279;SDS011;2663;53.588;10.010;2022-08-03T15:32:35;6.00;;;1.40;;
5279;SDS011;2663;53.588;10.010;2022-08-03T15:35:02;2.27;;;1.50;;
5279;SDS011;2663;53.588;10.010;2022-08-03T15:37:29;4.37;;;1.60;;
5279;SDS011;2663;53.588;10.010;2022-08-03T15:39:55;6.10;;;1.97;;
5279;SDS011;2663;53.588;10.010;2022-08-03T15:42:26;5.60;;;1.70;;
5279;SDS011;2663;53.588;10.010;2022-08-03T15:44:54;3.37;;;1.80;;